Time;durP1;ratioP1;P1;durP2;ratioP2;P2;SDS_P1;SDS_P2;PMS_P1;PMS_P2;Temp;Humidity;BMP_temperature;BMP_pressure;BME280_temperature;BME280_humidity;BME280_pressure;Samples;Min_cycle;Max_cycle;Signal;HPM_P1;HPM_P2
2023/10/19 00:02:23;;;;;;;19.02;15.45;;;8.30;99.90;;;;;;5052804;28;20095;-49
2023/10/19 00:04:49;;;;;;;18.33;14.85;;;8.20;99.90;;;;;;5066824;28;20362;-47
2023/10/19 00:07:15;;;;;;;22.45;16.45;;;8.30;99.90;;;;;;5061107;28;20448;-51
2023/10/19 00:09:45;;;;;;;24.52;19.75;;;8.30;99.90;;;;;;5066216;28;20041;-51
2023/10/19 00:12:11;;;;;;;22.30;19.23;;;8.30;99.90;;;;;;5067825;28;20096;-50
2023/10/19 00:14:36;;;;;;;22.38;16.95;;;8.30;99.90;;;;;;5066610;28;20121;-48
2023/10/19 00:17:10;;;;;;;21.63;17.25;;;8.30;99.90;;;;;;5069954;28;20563;-51
2023/10/19 00:19:41;;;;;;;24.20;18.75;;;8.30;99.90;;;;;;5061726;28;20466;-48
2023/10/19 00:22:15;;;;;;;26.17;21.15;;;8.30;99.90;;;;;;5050811;28;20143;-49
2023/10/19 00:24:41;;;;;;;24.63;20.92;;;8.30;99.90;;;;;;5061959;28;20071;-49
2023/10/19 00:27:15;;;;;;;25.25;20.45;;;8.30;99.90;;;;;;5067032;28;20033;-48
2023/10/19 00:29:47;;;;;;;22.83;17.90;;;8.30;99.90;;;;;;5064391;28;20048;-47
2023/10/19 00:32:14;;;;;;;24.63;20.20;;;8.30;99.90;;;;;;5060330;28;20048;-47
2023/10/19 00:34:41;;;;;;;22.58;18.45;;;8.30;99.90;;;;;;5057473;28;20041;-49
2023/10/19 00:37:10;;;;;;;27.83;19.35;;;8.30;99.90;;;;;;5065678;28;20044;-50
2023/10/19 00:39:50;;;;;;;25.38;20.05;;;8.30;99.90;;;;;;5062471;28;20457;-51
2023/10/19 00:42:20;;;;;;;28.50;21.75;;;8.30;99.90;;;;;;5057775;28;20513;-48
2023/10/19 00:44:50;;;;;;;27.58;20.30;;;8.30;99.90;;;;;;5061456;28;20053;-47
2023/10/19 00:47:19;;;;;;;28.92;21.85;;;8.30;99.90;;;;;;5058601;28;20732;-48
2023/10/19 00:49:48;;;;;;;27.02;20.92;;;8.30;99.90;;;;;;5054075;28;20048;-47
2023/10/19 00:52:23;;;;;;;25.55;20.00;;;8.30;99.90;;;;;;5061098;28;20488;-47
2023/10/19 00:57:22;;;;;;;;;;;8.30;99.90;;;;;;5060677;28;20499;-47
2023/10/19 00:59:53;;;;;;;33.45;22.40;;;8.30;99.90;;;;;;5063813;28;19920;-49
2023/10/19 01:02:20;;;;;;;30.52;22.95;;;8.30;99.90;;;;;;5060772;28;20040;-46
2023/10/19 01:04:50;;;;;;;32.50;23.33;;;8.20;99.90;;;;;;5064546;28;20154;-46
2023/10/19 01:09:53;;;;;;;30.35;24.05;;;8.30;99.90;;;;;;5063276;28;20134;-46
2023/10/19 01:12:25;;;;;;;28.60;21.03;;;8.20;99.90;;;;;;5054694;28;20071;-46
2023/10/19 01:15:16;;;;;;;33.28;23.63;;;8.30;99.90;;;;;;5055517;28;20056;-46
2023/10/19 01:17:44;;;;;;;35.17;25.13;;;8.30;99.90;;;;;;5059735;28;20086;-46
2023/10/19 01:20:42;;;;;;;32.63;24.33;;;8.20;99.90;;;;;;5060756;28;20336;-47
2023/10/19 01:28:42;;;;;;;35.50;25.92;;;8.30;99.90;;;;;;5065616;28;20037;-47
2023/10/19 01:34:09;;;;;;;26.80;20.80;;;8.30;99.90;;;;;;5058299;28;20044;-50
2023/10/19 01:36:44;;;;;;;38.85;25.08;;;8.30;99.90;;;;;;5049365;28;20132;-49
2023/10/19 01:39:10;;;;;;;34.28;25.15;;;8.30;99.90;;;;;;5070086;28;20053;-47
2023/10/19 01:41:37;;;;;;;35.03;25.67;;;8.40;99.90;;;;;;5065651;28;20481;-50
2023/10/19 01:44:06;;;;;;;33.63;25.70;;;8.40;99.90;;;;;;5064743;28;20048;-50
2023/10/19 01:46:34;;;;;;;31.33;24.50;;;8.40;99.90;;;;;;5067048;28;20049;-48
2023/10/19 01:49:02;;;;;;;32.05;24.05;;;8.40;99.90;;;;;;5062171;28;20452;-48
2023/10/19 01:51:30;;;;;;;40.97;27.13;;;8.40;99.90;;;;;;5043382;28;20045;-48
2023/10/19 01:53:56;;;;;;;31.67;23.27;;;8.40;99.90;;;;;;5055768;28;20382;-47
2023/10/19 01:56:22;;;;;;;34.92;24.75;;;8.30;99.90;;;;;;5058535;28;20113;-49
2023/10/19 01:58:48;;;;;;;33.60;24.67;;;8.40;99.90;;;;;;5044041;28;20526;-47
2023/10/19 02:01:20;;;;;;;36.65;25.67;;;8.40;99.90;;;;;;5064186;28;20040;-48
2023/10/19 02:03:47;;;;;;;28.48;22.02;;;8.30;99.90;;;;;;5068053;28;20040;-47
2023/10/19 02:08:56;;;;;;;28.42;22.90;;;8.40;99.90;;;;;;5056730;28;20045;-48
2023/10/19 02:11:26;;;;;;;30.98;23.83;;;8.50;99.90;;;;;;5066049;28;20060;-48
2023/10/19 02:13:55;;;;;;;27.85;22.65;;;8.50;99.90;;;;;;5062801;28;20059;-48
2023/10/19 02:16:22;;;;;;;31.60;24.05;;;8.50;99.90;;;;;;5063885;28;20394;-48
2023/10/19 02:18:52;;;;;;;34.30;24.83;;;8.50;99.90;;;;;;5061816;28;20040;-48
2023/10/19 02:21:30;;;;;;;34.25;24.75;;;8.50;99.90;;;;;;5062844;28;20052;-48
2023/10/19 02:23:59;;;;;;;30.65;22.88;;;8.50;99.90;;;;;;5067333;28;20036;-50
2023/10/19 02:26:28;;;;;;;29.48;22.15;;;8.50;99.90;;;;;;5067952;28;20447;-49
2023/10/19 02:28:55;;;;;;;30.77;23.08;;;8.60;99.90;;;;;;5069027;28;20044;-49
2023/10/19 02:31:23;;;;;;;29.23;22.65;;;8.60;99.90;;;;;;5067707;28;20325;-49
2023/10/19 02:34:00;;;;;;;28.27;21.20;;;8.60;99.90;;;;;;5069138;28;20570;-50
2023/10/19 02:36:29;;;;;;;29.42;22.63;;;8.60;99.90;;;;;;5069416;28;20049;-50
2023/10/19 02:38:58;;;;;;;27.48;22.30;;;8.60;99.90;;;;;;5070259;28;20036;-50
2023/10/19 02:41:26;;;;;;;29.52;22.98;;;8.60;99.90;;;;;;5069183;28;20526;-51
2023/10/19 02:46:51;;;;;;;29.13;22.77;;;8.70;99.90;;;;;;5078701;28;20091;-49
2023/10/19 02:49:20;;;;;;;27.50;22.25;;;8.60;99.90;;;;;;5068504;28;22033;-49
2023/10/19 02:51:47;;;;;;;28.02;22.00;;;8.70;99.90;;;;;;5067289;28;20119;-48
2023/10/19 02:56:51;;;;;;;28.90;22.02;;;8.70;99.90;;;;;;5066130;28;20407;-48
2023/10/19 02:59:22;;;;;;;29.23;23.60;;;8.80;99.90;;;;;;5064131;28;20380;-50
2023/10/19 03:01:50;;;;;;;31.73;24.40;;;8.80;99.90;;;;;;5052418;28;20045;-51
2023/10/19 03:04:17;;;;;;;34.08;25.83;;;8.80;99.90;;;;;;5063492;28;20080;-51
2023/10/19 03:06:43;;;;;;;31.60;23.95;;;8.80;99.90;;;;;;5063954;28;20434;-51
2023/10/19 03:09:22;;;;;;;29.60;23.38;;;8.80;99.90;;;;;;5066264;28;20119;-50
2023/10/19 03:11:52;;;;;;;28.65;23.00;;;8.80;99.90;;;;;;5064503;28;20044;-47
2023/10/19 03:14:18;;;;;;;31.50;24.33;;;8.80;99.90;;;;;;5059442;28;20048;-48
2023/10/19 03:16:45;;;;;;;31.48;24.13;;;8.80;99.90;;;;;;5066517;28;20037;-48
2023/10/19 03:19:11;;;;;;;35.22;25.15;;;8.90;99.90;;;;;;5055513;28;20139;-48
2023/10/19 03:21:42;;;;;;;34.00;24.98;;;8.80;99.90;;;;;;5059814;28;20060;-51
2023/10/19 03:26:54;;;;;;;32.72;24.90;;;8.80;99.90;;;;;;5059877;28;20045;-51
2023/10/19 03:29:30;;;;;;;32.38;24.75;;;8.90;99.90;;;;;;5059724;28;20055;-48
2023/10/19 03:31:56;;;;;;;28.50;22.80;;;8.90;99.90;;;;;;5066530;28;20059;-48
2023/10/19 03:34:23;;;;;;;30.95;23.65;;;8.90;99.90;;;;;;5066757;28;20478;-50
2023/10/19 03:36:50;;;;;;;28.58;22.15;;;8.90;99.90;;;;;;5068058;28;20485;-49
2023/10/19 03:39:17;;;;;;;30.35;22.90;;;8.90;99.90;;;;;;5068304;28;20040;-51
2023/10/19 03:41:44;;;;;;;38.20;25.63;;;8.90;99.90;;;;;;5070984;28;20086;-51
2023/10/19 03:44:24;;;;;;;35.95;23.75;;;9.00;99.90;;;;;;5068809;28;20067;-49
2023/10/19 03:46:53;;;;;;;34.05;24.13;;;9.00;99.90;;;;;;5064897;28;20074;-48
2023/10/19 03:49:22;;;;;;;31.90;24.02;;;9.00;99.90;;;;;;5062252;28;20073;-51
2023/10/19 03:52:02;;;;;;;28.80;21.90;;;9.10;99.90;;;;;;5068213;28;20047;-50
2023/10/19 03:54:28;;;;;;;33.78;24.33;;;9.10;99.90;;;;;;5068240;28;20044;-51
2023/10/19 03:57:01;;;;;;;30.52;21.92;;;9.10;99.90;;;;;;5065659;28;20548;-51
2023/10/19 03:59:31;;;;;;;25.17;20.73;;;9.10;99.90;;;;;;5057948;28;20131;-48
2023/10/19 04:01:59;;;;;;;32.65;22.65;;;9.10;99.90;;;;;;5065279;28;20048;-48
2023/10/19 04:04:25;;;;;;;28.10;22.08;;;9.20;99.90;;;;;;5066399;28;20048;-51
2023/10/19 04:06:57;;;;;;;27.33;21.55;;;9.20;99.90;;;;;;5063244;28;20047;-51
2023/10/19 04:09:23;;;;;;;31.90;23.20;;;9.20;99.90;;;;;;5060497;28;20091;-48
2023/10/19 04:11:49;;;;;;;24.30;19.65;;;9.20;99.90;;;;;;5064309;28;20162;-51
2023/10/19 04:14:15;;;;;;;27.98;20.42;;;9.20;99.90;;;;;;5066852;28;20063;-48
2023/10/19 04:16:44;;;;;;;30.85;20.75;;;9.30;99.90;;;;;;5051045;28;20037;-48
2023/10/19 04:19:11;;;;;;;25.58;19.65;;;9.20;99.90;;;;;;5062215;28;20299;-49
2023/10/19 04:21:39;;;;;;;28.00;20.58;;;9.30;99.90;;;;;;5060743;28;20116;-48
2023/10/19 04:24:07;;;;;;;25.35;19.15;;;9.30;99.90;;;;;;5061961;28;20032;-47
2023/10/19 04:26:37;;;;;;;26.60;18.98;;;9.30;99.90;;;;;;5057246;28;20052;-48
2023/10/19 04:29:11;;;;;;;23.13;18.45;;;9.40;99.90;;;;;;5055498;28;20144;-48
2023/10/19 04:31:48;;;;;;;24.13;19.75;;;9.30;99.90;;;;;;5058691;28;20044;-51
2023/10/19 04:34:16;;;;;;;25.63;19.30;;;9.30;99.90;;;;;;5053910;28;20151;-50
2023/10/19 04:36:42;;;;;;;27.98;19.65;;;9.40;99.90;;;;;;5058847;28;20045;-51
2023/10/19 04:39:13;;;;;;;25.23;19.73;;;9.50;99.90;;;;;;5067401;28;20048;-50
2023/10/19 04:41:39;;;;;;;24.33;19.88;;;9.40;99.90;;;;;;5068061;28;20044;-50
2023/10/19 04:44:08;;;;;;;22.50;18.30;;;9.50;99.90;;;;;;5069026;28;20036;-49
2023/10/19 04:46:34;;;;;;;25.55;19.67;;;9.50;99.90;;;;;;5066666;28;20114;-51
2023/10/19 04:49:00;;;;;;;25.20;19.83;;;9.50;99.90;;;;;;5052757;28;20051;-50
2023/10/19 04:51:26;;;;;;;22.45;17.95;;;9.60;99.90;;;;;;5059774;28;20037;-49
2023/10/19 04:53:51;;;;;;;22.73;18.15;;;9.50;99.90;;;;;;5067759;28;20054;-47
2023/10/19 04:56:17;;;;;;;25.02;19.05;;;9.60;99.90;;;;;;5066297;28;20041;-51
2023/10/19 04:58:43;;;;;;;26.40;19.40;;;9.60;99.90;;;;;;5054677;28;20140;-49
2023/10/19 05:01:11;;;;;;;23.42;18.50;;;9.70;99.90;;;;;;5058292;28;20090;-50
2023/10/19 05:03:37;;;;;;;29.73;19.13;;;9.60;99.90;;;;;;5065639;28;20313;-50
2023/10/19 05:06:03;;;;;;;28.63;19.52;;;9.60;99.90;;;;;;5072435;28;20062;-48
2023/10/19 05:08:29;;;;;;;24.60;19.88;;;9.70;99.90;;;;;;5070255;28;20376;-51
2023/10/19 05:10:56;;;;;;;32.28;21.00;;;9.70;99.90;;;;;;5065489;28;20087;-48
2023/10/19 05:13:26;;;;;;;27.88;20.80;;;9.70;99.90;;;;;;5070866;28;20047;-51
2023/10/19 05:15:56;;;;;;;27.35;20.42;;;9.60;99.90;;;;;;5070377;28;20487;-50
2023/10/19 05:18:22;;;;;;;32.08;22.20;;;9.70;99.90;;;;;;5069736;28;20093;-51
2023/10/19 05:20:49;;;;;;;28.10;21.40;;;9.60;99.90;;;;;;5063067;28;20494;-51
2023/10/19 05:23:15;;;;;;;22.53;19.43;;;9.60;99.90;;;;;;5064913;28;20089;-51
2023/10/19 05:25:41;;;;;;;27.05;20.20;;;9.70;99.90;;;;;;5067467;28;20123;-51
2023/10/19 05:28:07;;;;;;;33.90;23.10;;;9.70;99.90;;;;;;5072349;28;20132;-51
2023/10/19 05:30:35;;;;;;;27.45;20.88;;;9.70;99.90;;;;;;5062485;28;20380;-51
2023/10/19 05:33:03;;;;;;;25.60;21.38;;;9.70;99.90;;;;;;5070885;28;20036;-51
2023/10/19 05:35:30;;;;;;;28.42;20.70;;;9.70;99.90;;;;;;5072415;28;20119;-51
2023/10/19 05:37:56;;;;;;;23.67;20.42;;;9.80;99.90;;;;;;5060124;28;20402;-50
2023/10/19 05:40:29;;;;;;;24.52;20.33;;;9.70;99.90;;;;;;5059894;28;20136;-48
2023/10/19 05:42:55;;;;;;;28.38;22.20;;;9.80;99.90;;;;;;5065593;28;20048;-48
2023/10/19 05:45:20;;;;;;;26.58;21.55;;;9.80;99.90;;;;;;5060583;28;20506;-50
2023/10/19 05:47:46;;;;;;;26.85;21.60;;;9.90;99.90;;;;;;5069272;28;20087;-48
2023/10/19 05:50:14;;;;;;;32.90;24.25;;;9.80;99.90;;;;;;5065025;28;20039;-51
2023/10/19 05:52:43;;;;;;;31.30;22.92;;;9.90;99.90;;;;;;5071164;28;20052;-48
2023/10/19 05:55:13;;;;;;;34.00;24.35;;;9.90;99.90;;;;;;5065431;28;20371;-50
2023/10/19 05:57:42;;;;;;;31.02;24.67;;;9.90;99.90;;;;;;5066574;28;20044;-51
2023/10/19 06:00:13;;;;;;;27.48;22.75;;;10.00;99.90;;;;;;5062477;28;20510;-48
2023/10/19 06:02:46;;;;;;;31.45;23.33;;;9.90;99.90;;;;;;5063352;28;20086;-51
2023/10/19 06:05:16;;;;;;;28.42;22.83;;;10.00;99.90;;;;;;5059811;28;20066;-49
2023/10/19 06:07:43;;;;;;;28.08;22.50;;;10.00;99.90;;;;;;5068100;28;20036;-50
2023/10/19 06:10:15;;;;;;;28.02;23.55;;;10.10;99.90;;;;;;5060174;28;20041;-51
2023/10/19 06:12:51;;;;;;;37.88;25.45;;;10.10;99.90;;;;;;5065431;28;20049;-50
2023/10/19 06:15:18;;;;;;;33.53;24.13;;;10.10;99.90;;;;;;5063358;28;20085;-49
2023/10/19 06:17:45;;;;;;;40.88;26.42;;;10.00;99.90;;;;;;5066404;28;20040;-51
2023/10/19 06:20:24;;;;;;;28.40;22.73;;;10.10;99.90;;;;;;5067852;28;20123;-48
2023/10/19 06:22:51;;;;;;;26.45;22.27;;;10.10;99.90;;;;;;5065744;28;20133;-48
2023/10/19 06:25:18;;;;;;;27.83;23.20;;;10.10;99.90;;;;;;5061504;28;20045;-51
2023/10/19 06:27:44;;;;;;;35.53;25.43;;;10.10;99.90;;;;;;5071703;28;20475;-48
2023/10/19 06:30:11;;;;;;;32.50;24.02;;;10.20;99.90;;;;;;5066360;28;20033;-49
2023/10/19 06:32:36;;;;;;;27.60;22.23;;;10.10;99.90;;;;;;5069872;28;20048;-47
2023/10/19 06:35:03;;;;;;;29.65;23.58;;;10.10;99.90;;;;;;5060463;28;20502;-50
2023/10/19 06:37:29;;;;;;;26.20;22.30;;;10.10;99.90;;;;;;5068425;28;20056;-51
2023/10/19 06:39:54;;;;;;;33.97;24.48;;;10.10;99.90;;;;;;5068576;28;20036;-49
2023/10/19 06:42:20;;;;;;;29.10;23.70;;;10.20;99.90;;;;;;5068183;28;20086;-48
2023/10/19 06:44:46;;;;;;;30.38;24.63;;;10.30;99.90;;;;;;5062045;28;20573;-51
2023/10/19 06:47:13;;;;;;;38.70;25.70;;;;;;;;;;5071421;28;20119;-48
2023/10/19 06:49:39;;;;;;;38.08;26.00;;;10.30;99.90;;;;;;5063839;28;20119;-50
2023/10/19 06:52:05;;;;;;;36.25;25.95;;;10.30;99.90;;;;;;5065334;28;20079;-50
2023/10/19 06:54:31;;;;;;;42.50;27.48;;;10.30;99.90;;;;;;5064978;28;20495;-48
2023/10/19 06:56:57;;;;;;;31.27;24.20;;;10.30;99.90;;;;;;5062183;28;20117;-48
2023/10/19 06:59:24;;;;;;;33.88;24.83;;;10.30;99.90;;;;;;5064321;28;20041;-50
2023/10/19 07:01:50;;;;;;;36.33;26.10;;;10.40;99.90;;;;;;5058223;28;20115;-49
2023/10/19 07:04:15;;;;;;;38.90;27.33;;;10.40;99.90;;;;;;5062162;28;20052;-51
2023/10/19 07:06:41;;;;;;;42.60;28.38;;;10.40;99.90;;;;;;5062969;28;20036;-49
2023/10/19 07:09:10;;;;;;;35.15;26.35;;;10.40;99.90;;;;;;5068505;28;20040;-49
2023/10/19 07:11:36;;;;;;;36.42;27.00;;;10.50;99.90;;;;;;5066461;28;20350;-48
2023/10/19 07:14:01;;;;;;;34.95;25.15;;;10.50;99.90;;;;;;5064605;28;20116;-47
2023/10/19 07:16:27;;;;;;;43.47;28.10;;;10.50;99.90;;;;;;5062181;28;20033;-50
2023/10/19 07:18:53;;;;;;;37.13;26.80;;;10.50;99.90;;;;;;5071772;28;20036;-48
2023/10/19 07:21:19;;;;;;;34.83;26.85;;;10.60;99.90;;;;;;5066774;28;20498;-52
2023/10/19 07:23:45;;;;;;;38.22;26.48;;;10.60;99.90;;;;;;5070365;28;20093;-51
2023/10/19 07:26:14;;;;;;;44.00;28.10;;;10.50;99.90;;;;;;5063679;28;20127;-49
2023/10/19 07:28:40;;;;;;;43.17;28.08;;;10.60;99.90;;;;;;5058189;28;20049;-47
2023/10/19 07:31:12;;;;;;;34.70;26.13;;;10.60;99.90;;;;;;5062744;28;20037;-47
2023/10/19 07:33:42;;;;;;;38.35;25.80;;;10.60;99.90;;;;;;5052101;28;20064;-47
2023/10/19 07:36:14;;;;;;;43.47;28.35;;;10.60;99.90;;;;;;5066458;28;20090;-47
2023/10/19 07:38:42;;;;;;;35.75;26.38;;;10.70;99.90;;;;;;5051962;28;20055;-48
2023/10/19 07:41:09;;;;;;;37.35;26.17;;;10.60;99.90;;;;;;5062639;28;20040;-50
2023/10/19 07:43:35;;;;;;;37.70;26.77;;;10.70;99.90;;;;;;5072863;28;20044;-47
2023/10/19 07:46:01;;;;;;;35.35;25.75;;;10.80;99.90;;;;;;5062831;28;20045;-47
2023/10/19 07:48:27;;;;;;;35.90;26.08;;;10.70;99.90;;;;;;5053059;28;20041;-50
2023/10/19 07:50:53;;;;;;;36.95;27.52;;;10.80;99.90;;;;;;5054429;28;20067;-48
2023/10/19 07:53:19;;;;;;;38.50;27.45;;;10.70;99.90;;;;;;5064221;28;20502;-50
2023/10/19 07:55:45;;;;;;;38.67;27.55;;;10.80;99.90;;;;;;5066344;28;20368;-50
2023/10/19 07:58:11;;;;;;;36.65;27.35;;;10.90;99.90;;;;;;5072996;28;20044;-47
2023/10/19 08:00:38;;;;;;;35.95;26.35;;;10.80;99.90;;;;;;5068085;28;20052;-51
2023/10/19 08:03:05;;;;;;;43.10;27.52;;;11.00;99.90;;;;;;5071717;28;20084;-51
2023/10/19 08:05:31;;;;;;;35.97;28.08;;;10.90;99.90;;;;;;5070183;28;20049;-51
2023/10/19 08:08:00;;;;;;;49.75;29.98;;;11.00;99.90;;;;;;5071668;28;20082;-50
2023/10/19 08:10:26;;;;;;;39.28;29.05;;;11.10;99.90;;;;;;5071687;28;20033;-51
2023/10/19 08:12:53;;;;;;;36.72;27.48;;;11.10;99.90;;;;;;5072604;28;20494;-47
2023/10/19 08:15:20;;;;;;;40.33;28.90;;;11.10;99.90;;;;;;5060938;28;20048;-51
2023/10/19 08:17:48;;;;;;;32.47;26.60;;;11.10;99.90;;;;;;5061437;28;20044;-48
2023/10/19 08:20:22;;;;;;;38.55;29.20;;;11.20;99.90;;;;;;5050488;28;20699;-51
2023/10/19 08:22:49;;;;;;;33.20;26.58;;;11.30;99.90;;;;;;5072197;28;20153;-48
2023/10/19 08:25:15;;;;;;;34.67;27.73;;;11.40;99.90;;;;;;5069190;28;20045;-51
2023/10/19 08:27:44;;;;;;;31.95;27.35;;;11.50;99.90;;;;;;5055213;28;20047;-51
2023/10/19 08:30:13;;;;;;;35.03;27.08;;;11.50;99.90;;;;;;5057424;28;20045;-50
2023/10/19 08:32:41;;;;;;;33.65;27.52;;;11.60;99.90;;;;;;5059241;28;20037;-47
2023/10/19 08:35:11;;;;;;;31.02;26.45;;;11.70;99.90;;;;;;5057522;28;20032;-47
2023/10/19 08:37:40;;;;;;;33.28;26.60;;;11.60;99.90;;;;;;5060942;28;20380;-48
2023/10/19 08:40:15;;;;;;;36.92;27.50;;;11.80;99.90;;;;;;5065837;28;20163;-47
2023/10/19 08:42:45;;;;;;;34.90;27.23;;;11.70;99.90;;;;;;5064709;28;20044;-47
2023/10/19 08:45:16;;;;;;;33.88;28.05;;;11.80;99.90;;;;;;5060924;28;20420;-48
2023/10/19 08:47:57;;;;;;;33.10;26.98;;;11.70;99.90;;;;;;5062303;28;20507;-48
2023/10/19 08:50:28;;;;;;;30.77;27.13;;;11.80;99.90;;;;;;5059769;28;20106;-51
2023/10/19 08:52:56;;;;;;;32.08;26.73;;;11.80;99.90;;;;;;5068501;28;20040;-50
2023/10/19 08:55:22;;;;;;;31.75;25.90;;;11.80;99.90;;;;;;5071051;28;20407;-52
2023/10/19 08:57:52;;;;;;;34.45;28.40;;;11.90;99.90;;;;;;5064212;28;20502;-50
2023/10/19 09:00:18;;;;;;;33.78;26.58;;;11.90;99.90;;;;;;5065382;28;20135;-48
2023/10/19 09:02:45;;;;;;;32.17;27.95;;;12.00;99.90;;;;;;5056524;28;20041;-47
2023/10/19 09:05:19;;;;;;;32.78;26.50;;;12.00;99.90;;;;;;5051524;28;20048;-48
2023/10/19 09:07:47;;;;;;;29.27;26.17;;;12.00;99.90;;;;;;5050921;28;20064;-48
2023/10/19 09:10:16;;;;;;;32.85;25.92;;;12.10;99.90;;;;;;5051138;28;20047;-48
2023/10/19 09:12:42;;;;;;;29.45;26.23;;;12.00;99.90;;;;;;5058820;28;20041;-47
2023/10/19 09:15:32;;;;;;;33.40;26.45;;;12.20;99.90;;;;;;5051106;28;20139;-48
2023/10/19 09:18:14;;;;;;;33.00;26.15;;;12.20;99.90;;;;;;5051043;28;20083;-48
2023/10/19 09:20:42;;;;;;;31.67;26.98;;;12.20;99.90;;;;;;5060220;28;20043;-50
2023/10/19 09:23:07;;;;;;;30.48;26.40;;;12.20;99.90;;;;;;5052680;28;20144;-50
2023/10/19 09:25:35;;;;;;;28.08;24.48;;;12.20;99.90;;;;;;5063278;28;20132;-50
2023/10/19 09:28:02;;;;;;;28.20;25.33;;;12.30;99.90;;;;;;5062924;28;20056;-49
2023/10/19 09:30:30;;;;;;;28.92;25.15;;;12.30;99.90;;;;;;5050788;28;20502;-48
2023/10/19 09:32:57;;;;;;;29.38;25.52;;;12.30;99.90;;;;;;5061647;28;20033;-49
2023/10/19 09:35:27;;;;;;;27.30;24.50;;;12.20;99.90;;;;;;5056560;28;20160;-48
2023/10/19 09:37:56;;;;;;;27.85;24.42;;;12.20;99.90;;;;;;5067693;28;20055;-50
2023/10/19 09:40:23;;;;;;;27.70;24.70;;;12.30;99.90;;;;;;5065110;28;20119;-50
2023/10/19 09:42:56;;;;;;;27.73;24.40;;;12.20;99.90;;;;;;5061955;28;20414;-51
2023/10/19 09:45:26;;;;;;;26.48;23.63;;;12.20;99.90;;;;;;5064032;28;20117;-48
2023/10/19 09:47:54;;;;;;;29.40;24.77;;;12.30;99.90;;;;;;5060671;28;20041;-48
2023/10/19 09:50:20;;;;;;;31.55;26.40;;;12.30;99.90;;;;;;5069529;28;20118;-51
2023/10/19 09:52:46;;;;;;;30.00;25.00;;;12.30;99.90;;;;;;5067492;28;20082;-50
2023/10/19 09:55:34;;;;;;;29.98;25.15;;;12.30;99.90;;;;;;5067902;28;20044;-51
2023/10/19 09:58:04;;;;;;;26.58;23.90;;;12.30;99.90;;;;;;5058490;28;20045;-50
2023/10/19 10:00:34;;;;;;;26.73;23.60;;;12.50;99.90;;;;;;5069000;28;20047;-49
2023/10/19 10:03:02;;;;;;;28.95;23.67;;;12.50;99.90;;;;;;5065227;28;20073;-46
2023/10/19 10:05:43;;;;;;;27.50;24.60;;;12.40;99.90;;;;;;5058804;28;20056;-47
2023/10/19 10:08:17;;;;;;;25.55;22.85;;;12.60;99.90;;;;;;5062068;28;20439;-47
2023/10/19 10:10:47;;;;;;;26.55;23.70;;;12.60;99.90;;;;;;5053678;28;20132;-47
2023/10/19 10:13:30;;;;;;;26.92;23.50;;;12.60;99.90;;;;;;5058871;28;20063;-50
2023/10/19 10:15:58;;;;;;;25.27;22.52;;;12.60;99.90;;;;;;5059556;28;20044;-48
2023/10/19 10:18:30;;;;;;;28.73;24.20;;;12.70;99.90;;;;;;5059411;28;20048;-47
2023/10/19 10:21:10;;;;;;;24.77;22.23;;;12.70;99.90;;;;;;5062168;28;20056;-48
2023/10/19 10:23:47;;;;;;;26.85;24.13;;;12.70;99.90;;;;;;5062295;28;20044;-48
2023/10/19 10:26:14;;;;;;;27.52;24.08;;;12.90;99.90;;;;;;5069794;28;20052;-48
2023/10/19 10:28:40;;;;;;;27.77;24.25;;;12.90;99.90;;;;;;5069040;28;20068;-48
2023/10/19 10:31:07;;;;;;;28.70;25.48;;;12.90;99.90;;;;;;5071061;28;20048;-48
2023/10/19 10:33:41;;;;;;;27.77;24.73;;;12.90;99.90;;;;;;5073039;28;20048;-48
2023/10/19 10:36:08;;;;;;;27.27;24.30;;;13.10;99.90;;;;;;5062603;28;20444;-48
2023/10/19 10:38:37;;;;;;;27.17;24.38;;;13.00;99.90;;;;;;5066928;28;20541;-50
2023/10/19 10:41:03;;;;;;;28.95;24.73;;;13.10;99.90;;;;;;5063008;28;20024;-48
2023/10/19 10:43:29;;;;;;;27.73;24.90;;;13.10;99.90;;;;;;5073041;28;20114;-51
2023/10/19 10:46:07;;;;;;;27.50;24.65;;;13.10;99.90;;;;;;5061452;28;20079;-48
2023/10/19 10:48:33;;;;;;;28.65;24.48;;;13.20;99.90;;;;;;5062085;28;20049;-48
2023/10/19 10:50:58;;;;;;;27.75;24.50;;;13.10;99.90;;;;;;5065309;28;20478;-50
2023/10/19 10:53:26;;;;;;;27.10;24.02;;;13.20;99.90;;;;;;5068666;28;20123;-48
2023/10/19 10:55:53;;;;;;;29.77;26.45;;;13.20;99.90;;;;;;5054133;28;20056;-51
2023/10/19 10:58:19;;;;;;;26.55;23.75;;;13.20;99.90;;;;;;5069998;28;20045;-50
2023/10/19 11:00:51;;;;;;;28.45;25.15;;;13.20;99.90;;;;;;5065879;28;20509;-51
2023/10/19 11:03:17;;;;;;;27.80;24.85;;;13.10;99.90;;;;;;5056526;28;20454;-50
2023/10/19 11:05:45;;;;;;;29.02;24.38;;;13.10;99.90;;;;;;5071260;28;20067;-51
2023/10/19 11:08:13;;;;;;;28.45;24.42;;;13.10;99.90;;;;;;5059460;28;20044;-51
2023/10/19 11:10:39;;;;;;;;;;;13.10;99.90;;;;;;5059753;28;20455;-49
2023/10/19 11:13:06;;;;;;;27.25;23.73;;;13.10;99.90;;;;;;5067851;28;19944;-50
2023/10/19 11:15:33;;;;;;;30.35;25.92;;;13.00;99.90;;;;;;5057755;28;20037;-51
2023/10/19 11:17:59;;;;;;;28.30;25.42;;;13.20;99.90;;;;;;5061057;28;20035;-49
2023/10/19 11:20:27;;;;;;;29.92;26.25;;;13.30;99.90;;;;;;5063411;28;20033;-48
2023/10/19 11:22:55;;;;;;;30.60;25.70;;;;;;;;;;5053639;28;20106;-51
2023/10/19 11:25:28;;;;;;;27.88;25.05;;;13.60;99.90;;;;;;5054065;28;20048;-51
2023/10/19 11:28:14;;;;;;;29.02;25.92;;;13.70;99.90;;;;;;5065199;28;20049;-52
2023/10/19 11:30:40;;;;;;;29.65;26.45;;;13.80;99.90;;;;;;5068150;28;20041;-48
2023/10/19 11:33:08;;;;;;;28.98;25.88;;;13.90;99.90;;;;;;5065618;28;20047;-47
2023/10/19 11:35:34;;;;;;;30.48;25.25;;;14.00;99.90;;;;;;5060504;28;20106;-48
2023/10/19 11:38:02;;;;;;;31.52;26.67;;;14.30;99.90;;;;;;5062578;28;20352;-48
2023/10/19 11:40:28;;;;;;;27.00;24.27;;;14.60;99.90;;;;;;5062982;28;20517;-48
2023/10/19 11:42:58;;;;;;;28.70;25.40;;;14.90;99.90;;;;;;5061484;28;20037;-51
2023/10/19 11:45:24;;;;;;;26.75;24.13;;;15.20;99.90;;;;;;5062278;28;20087;-48
2023/10/19 11:47:50;;;;;;;25.60;22.95;;;15.40;99.90;;;;;;5066556;28;20105;-46
2023/10/19 11:50:17;;;;;;;26.05;23.35;;;15.40;99.90;;;;;;5068457;28;20071;-49
2023/10/19 11:52:45;;;;;;;25.23;22.65;;;15.30;99.90;;;;;;5072210;28;20390;-48
2023/10/19 11:55:15;;;;;;;27.20;23.73;;;15.10;99.90;;;;;;5059324;28;20108;-48
2023/10/19 11:57:43;;;;;;;25.02;22.52;;;14.90;99.90;;;;;;5067072;28;20190;-51
2023/10/19 12:00:14;;;;;;;25.63;23.02;;;14.60;99.90;;;;;;5059319;28;20049;-50
2023/10/19 12:02:43;;;;;;;28.42;24.27;;;14.60;99.90;;;;;;5055691;28;20514;-51
2023/10/19 12:05:12;;;;;;;28.42;25.25;;;14.60;99.90;;;;;;5050984;28;20044;-51
2023/10/19 12:07:38;;;;;;;28.02;24.85;;;14.00;99.90;;;;;;5051545;28;20063;-49
2023/10/19 12:10:08;;;;;;;29.20;26.05;;;14.20;99.90;;;;;;5050647;28;20041;-50
2023/10/19 12:12:35;;;;;;;29.92;24.58;;;14.30;99.90;;;;;;5051090;28;20501;-50
2023/10/19 12:15:02;;;;;;;32.73;25.73;;;14.30;99.90;;;;;;5058707;28;20041;-49
2023/10/19 12:17:29;;;;;;;30.70;26.35;;;14.30;99.90;;;;;;5066280;28;20379;-51
2023/10/19 12:19:55;;;;;;;30.27;25.67;;;14.20;99.90;;;;;;5051001;28;20045;-50
2023/10/19 12:22:21;;;;;;;29.35;26.33;;;14.20;99.90;;;;;;5069735;28;20048;-51
2023/10/19 12:24:48;;;;;;;31.25;27.17;;;14.20;99.90;;;;;;5069204;28;20097;-47
2023/10/19 12:27:14;;;;;;;29.85;25.40;;;14.10;99.90;;;;;;5071112;28;20063;-50
2023/10/19 12:29:40;;;;;;;31.50;28.30;;;14.10;99.90;;;;;;5068147;28;20040;-51
2023/10/19 12:32:06;;;;;;;30.95;25.45;;;14.20;99.90;;;;;;5070606;28;20048;-51
2023/10/19 12:34:32;;;;;;;30.08;25.63;;;14.60;99.90;;;;;;5070123;28;20761;-51
2023/10/19 12:36:59;;;;;;;29.13;26.02;;;14.70;99.90;;;;;;5070932;28;20048;-50
2023/10/19 12:39:45;;;;;;;26.55;23.83;;;14.90;99.90;;;;;;5071045;28;20124;-50
2023/10/19 12:42:10;;;;;;;27.77;24.85;;;14.90;99.90;;;;;;5071461;28;20091;-50
2023/10/19 12:44:39;;;;;;;26.67;23.88;;;14.70;99.90;;;;;;5067532;28;20076;-50
2023/10/19 12:47:13;;;;;;;28.83;24.45;;;14.50;99.90;;;;;;5061247;28;20072;-51
2023/10/19 12:49:40;;;;;;;27.95;24.95;;;14.40;99.90;;;;;;5066777;28;20332;-51
2023/10/19 12:52:10;;;;;;;28.90;24.40;;;14.30;99.90;;;;;;5061196;28;20041;-48
2023/10/19 12:54:36;;;;;;;33.70;26.30;;;14.10;99.90;;;;;;5052608;28;20053;-51
2023/10/19 12:57:07;;;;;;;32.45;27.23;;;14.00;99.90;;;;;;5052564;28;20054;-47
2023/10/19 12:59:37;;;;;;;31.48;26.50;;;14.00;99.90;;;;;;5070643;28;20052;-51
2023/10/19 13:02:03;;;;;;;30.67;25.42;;;14.00;99.90;;;;;;5070396;28;20059;-51
2023/10/19 13:04:30;;;;;;;29.15;26.15;;;14.00;99.90;;;;;;5059172;28;20041;-48
2023/10/19 13:06:57;;;;;;;;;;;14.00;99.90;;;;;;5051260;28;20078;-49